createdAt,value
2023-08-12T00:00:09.000Z,24
2023-08-12T00:02:11.000Z,24
2023-08-12T00:02:42.000Z,24
2023-08-12T00:04:52.663Z,23.9
2023-08-12T00:05:13.000Z,23.9
2023-08-12T00:06:29.000Z,24
2023-08-12T00:07:45.000Z,24
2023-08-12T00:09:47.000Z,24.1
2023-08-12T00:11:03.000Z,24.1
2023-08-12T00:12:28.842Z,24.1
2023-08-12T00:13:44.061Z,24.1
2023-08-12T00:14:59.272Z,24.2
2023-08-12T00:15:21.000Z,24.2
2023-08-12T00:16:37.000Z,24.2
2023-08-12T00:18:47.853Z,24.2
2023-08-12T00:20:04.046Z,24.2
2023-08-12T00:21:20.240Z,24
2023-08-12T00:22:36.433Z,24
2023-08-12T00:23:52.627Z,24
2023-08-12T00:25:08.821Z,24
2023-08-12T00:26:25.015Z,24
2023-08-12T00:27:41.208Z,24.1
2023-08-12T00:28:57.402Z,24
2023-08-12T00:30:13.596Z,23.8
2023-08-12T00:31:28.805Z,23.8
2023-08-12T00:32:35.000Z,23.6
2023-08-12T00:33:52.000Z,23.4
2023-08-12T00:35:17.389Z,23.5
2023-08-12T00:36:33.583Z,23.6
2023-08-12T00:37:49.776Z,23.6
2023-08-12T00:39:04.996Z,23.6
2023-08-12T00:40:11.000Z,23.7
2023-08-12T00:41:36.400Z,23.7
2023-08-12T00:42:52.593Z,23.7
2023-08-12T00:44:08.787Z,23.8
2023-08-12T00:45:24.981Z,23.8
2023-08-12T00:46:41.175Z,23.7
2023-08-12T00:47:48.000Z,23.7
2023-08-12T00:49:04.000Z,23.7
2023-08-12T00:50:29.756Z,23.6
2023-08-12T00:51:36.000Z,23.4
2023-08-12T00:52:52.000Z,23.4
2023-08-12T00:54:09.000Z,23.5
2023-08-12T00:55:34.532Z,23.5
2023-08-12T00:56:49.742Z,23.5
2023-08-12T00:58:05.936Z,23.5
2023-08-12T00:59:22.130Z,23.5
2023-08-12T01:00:38.323Z,23.5
2023-08-12T01:01:54.517Z,23.5
2023-08-12T01:03:10.710Z,23.6
2023-08-12T01:04:25.930Z,23.6
2023-08-12T01:05:41.141Z,23.6
2023-08-12T01:06:57.334Z,23.6
2023-08-12T01:08:13.527Z,23.6
2023-08-12T01:09:29.721Z,23.5
2023-08-12T01:10:45.915Z,23.5
2023-08-12T01:12:02.109Z,23.6
2023-08-12T01:13:18.302Z,23.6
2023-08-12T01:14:34.496Z,23.6
2023-08-12T01:15:50.689Z,23.5
2023-08-12T01:17:06.883Z,23.4
2023-08-12T01:18:23.077Z,23.4
2023-08-12T01:19:39.271Z,23.4
2023-08-12T01:20:55.464Z,23.4
2023-08-12T01:22:10.674Z,23.4
2023-08-12T01:23:26.869Z,23.4
2023-08-12T01:24:33.000Z,23.5
2023-08-12T01:25:59.256Z,23.5
2023-08-12T01:27:06.000Z,23.5
2023-08-12T01:28:31.643Z,23.5
2023-08-12T01:29:46.863Z,23.4
2023-08-12T01:31:02.073Z,23.5
2023-08-12T01:32:17.288Z,23.5
2023-08-12T01:33:33.482Z,23.4
2023-08-12T01:34:49.676Z,23.3
2023-08-12T01:36:05.869Z,23.3
2023-08-12T01:37:22.063Z,23.3
2023-08-12T01:38:38.257Z,23.3
2023-08-12T01:39:54.451Z,23.3
2023-08-12T01:41:01.000Z,23.3
2023-08-12T01:42:26.838Z,23.4
2023-08-12T01:43:43.031Z,23.4
2023-08-12T01:44:59.225Z,23.3
2023-08-12T01:46:15.419Z,23.2
2023-08-12T01:47:31.612Z,23.2
2023-08-12T01:48:46.823Z,23.2
2023-08-12T01:50:03.016Z,23.1
2023-08-12T01:51:19.209Z,23.2
2023-08-12T01:52:35.403Z,23.2
2023-08-12T01:53:51.597Z,23.3
2023-08-12T01:55:07.791Z,23.3
2023-08-12T01:56:23.985Z,23.2
2023-08-12T01:57:30.000Z,23.3
2023-08-12T01:58:47.000Z,23.2
2023-08-12T02:00:12.566Z,23.3
2023-08-12T02:01:28.760Z,23.2
2023-08-12T02:02:44.953Z,23.1
2023-08-12T02:03:51.000Z,23.1
2023-08-12T02:05:16.357Z,23.2
2023-08-12T02:06:32.550Z,23.2
2023-08-12T02:07:48.744Z,23.1
2023-08-12T02:09:04.938Z,23.1
2023-08-12T02:10:21.131Z,23.1
2023-08-12T02:11:37.325Z,23.2
2023-08-12T02:12:44.000Z,23.2
2023-08-12T02:14:09.712Z,23.2
2023-08-12T02:15:25.906Z,23.3
2023-08-12T02:16:42.099Z,23.2
2023-08-12T02:17:58.293Z,23.2
2023-08-12T02:19:05.000Z,23.2
2023-08-12T02:20:21.000Z,23
2023-08-12T02:21:45.891Z,22.9
2023-08-12T02:22:52.000Z,23
2023-08-12T02:24:18.277Z,23.1
2023-08-12T02:25:34.471Z,23.1
2023-08-12T02:26:50.665Z,23.2
2023-08-12T02:28:06.859Z,23.1
2023-08-12T02:29:23.053Z,23
2023-08-12T02:30:39.247Z,23.1
2023-08-12T02:31:46.000Z,23
2023-08-12T02:33:02.000Z,23.1
2023-08-12T02:34:27.828Z,23.1
2023-08-12T02:35:34.000Z,23.1
2023-08-12T02:37:00.215Z,23.1
2023-08-12T02:38:15.425Z,23.1
2023-08-12T02:39:31.619Z,23.1
2023-08-12T02:40:47.812Z,23.1
2023-08-12T02:42:04.006Z,23.1
2023-08-12T02:43:10.000Z,23.1
2023-08-12T02:44:36.393Z,23.1
2023-08-12T02:45:43.000Z,23.1
2023-08-12T02:47:08.781Z,23.1
2023-08-12T02:48:24.974Z,23.1
2023-08-12T02:49:31.000Z,23.1
2023-08-12T02:50:57.362Z,23.1
2023-08-12T02:52:13.555Z,23.1
2023-08-12T02:53:29.749Z,23.1
2023-08-12T02:54:35.000Z,23.1
2023-08-12T02:55:51.000Z,23
2023-08-12T02:57:08.000Z,23.1
2023-08-12T02:58:24.000Z,23.1
2023-08-12T02:59:40.000Z,23.1
2023-08-12T03:01:05.927Z,23.1
2023-08-12T03:02:22.121Z,23.1
2023-08-12T03:03:38.315Z,22.9
2023-08-12T03:04:54.509Z,22.9
2023-08-12T03:06:10.703Z,22.9
2023-08-12T03:07:26.896Z,22.9
2023-08-12T03:08:43.090Z,22.9
2023-08-12T03:09:59.283Z,22.9
2023-08-12T03:11:14.493Z,22.9
2023-08-12T03:12:30.687Z,23
2023-08-12T03:13:46.881Z,22.9
2023-08-12T03:15:03.074Z,22.9
2023-08-12T03:16:19.268Z,22.9
2023-08-12T03:17:35.461Z,22.8
2023-08-12T03:18:51.655Z,22.9
2023-08-12T03:19:58.000Z,22.9
2023-08-12T03:21:24.043Z,22.9
2023-08-12T03:22:40.236Z,22.9
2023-08-12T03:23:56.430Z,22.9
2023-08-12T03:25:03.000Z,22.9
2023-08-12T03:26:28.817Z,22.7
2023-08-12T03:27:34.000Z,22.7
2023-08-12T03:29:00.220Z,22.7
2023-08-12T03:30:16.414Z,22.8
2023-08-12T03:31:32.608Z,22.8
2023-08-12T03:32:48.801Z,22.8
2023-08-12T03:34:04.995Z,22.9
2023-08-12T03:35:21.189Z,22.8
2023-08-12T03:36:37.383Z,22.8
2023-08-12T03:37:53.576Z,22.7
2023-08-12T03:39:00.000Z,22.8
2023-08-12T03:40:25.964Z,22.8
2023-08-12T03:41:42.158Z,22.8
2023-08-12T03:42:58.351Z,22.8
2023-08-12T03:44:13.561Z,22.9
2023-08-12T03:45:29.754Z,22.8
2023-08-12T03:46:45.948Z,22.7
2023-08-12T03:48:02.142Z,22.7
2023-08-12T03:49:09.000Z,22.8
2023-08-12T03:50:25.000Z,22.8
2023-08-12T03:53:06.916Z,22.6
2023-08-12T03:54:23.110Z,22.6
2023-08-12T03:55:39.303Z,22.6
2023-08-12T03:56:55.497Z,22.6
2023-08-12T03:58:02.000Z,22.6
2023-08-12T03:59:27.884Z,22.5
2023-08-12T04:00:43.095Z,22.5
2023-08-12T04:01:59.288Z,22.5
2023-08-12T04:03:06.000Z,22.5
2023-08-12T04:04:22.000Z,22.5
2023-08-12T04:05:47.869Z,22.5
2023-08-12T04:07:04.062Z,22.4
2023-08-12T04:08:10.000Z,22.5
2023-08-12T04:09:36.451Z,22.5
2023-08-12T04:10:43.000Z,22.5
2023-08-12T04:12:08.838Z,22.5
2023-08-12T04:13:25.031Z,22.5
2023-08-12T04:14:31.000Z,22.4
2023-08-12T04:15:57.419Z,22.4
2023-08-12T04:17:12.628Z,22.3
2023-08-12T04:18:28.822Z,22.4
2023-08-12T04:19:45.016Z,22.4
2023-08-12T04:20:51.000Z,22.3
2023-08-12T04:22:17.403Z,22.4
2023-08-12T04:23:33.597Z,22.4
2023-08-12T04:24:40.000Z,22.4
2023-08-12T04:26:05.984Z,22.4
2023-08-12T04:27:22.178Z,22.4
2023-08-12T04:28:38.371Z,22.4
2023-08-12T04:29:54.565Z,22.4
2023-08-12T04:31:10.758Z,22.4
2023-08-12T04:32:26.952Z,22.4
2023-08-12T04:33:42.163Z,22.4
2023-08-12T04:34:58.356Z,22.4
2023-08-12T04:36:05.000Z,22.3
2023-08-12T04:37:30.743Z,22.4
2023-08-12T04:38:37.000Z,22.4
2023-08-12T04:40:03.130Z,22.3
2023-08-12T04:41:19.325Z,22.3
2023-08-12T04:42:35.518Z,22.3
2023-08-12T04:43:51.712Z,22.3
2023-08-12T04:44:58.000Z,22.3
2023-08-12T04:46:24.099Z,22.4
2023-08-12T04:47:40.293Z,22.4
2023-08-12T04:48:56.486Z,22.4
2023-08-12T04:50:02.000Z,22.4
2023-08-12T04:51:27.890Z,22.3
2023-08-12T04:52:44.084Z,22.3
2023-08-12T04:54:00.277Z,22.3
2023-08-12T04:55:16.471Z,22.3
2023-08-12T04:56:32.664Z,22.4
2023-08-12T04:57:39.000Z,22.4
2023-08-12T04:58:55.000Z,22.5
2023-08-12T05:00:21.245Z,22.4
2023-08-12T05:01:37.439Z,22.4
2023-08-12T05:02:44.000Z,22.5
2023-08-12T05:04:09.826Z,22.5
2023-08-12T05:05:16.000Z,22.6
2023-08-12T05:06:31.000Z,22.6
2023-08-12T05:07:48.000Z,22.8
2023-08-12T05:09:13.617Z,22.9
2023-08-12T05:10:29.810Z,23.1
2023-08-12T05:11:46.004Z,23.2
2023-08-12T05:13:02.198Z,23.3
2023-08-12T05:14:18.392Z,23.3
2023-08-12T05:15:34.586Z,23.4
2023-08-12T05:16:50.780Z,23.4
2023-08-12T05:18:06.973Z,23.5
2023-08-12T05:19:23.167Z,23.5
2023-08-12T05:20:39.361Z,23.6
2023-08-12T05:21:55.554Z,23.6
2023-08-12T05:23:10.764Z,23.6
2023-08-12T05:24:26.958Z,23.6
2023-08-12T05:25:43.152Z,23.6
2023-08-12T05:26:59.345Z,23.5
2023-08-12T05:28:15.539Z,23.4
2023-08-12T05:29:22.000Z,23.4
2023-08-12T05:30:47.926Z,23.5
2023-08-12T05:32:04.120Z,23.6
2023-08-12T05:33:10.000Z,23.5
2023-08-12T05:34:36.507Z,23.5
2023-08-12T05:35:52.701Z,23.5
2023-08-12T05:37:08.895Z,23.5
2023-08-12T05:38:25.089Z,23.5
2023-08-12T05:39:40.299Z,23.5
2023-08-12T05:40:56.492Z,23.5
2023-08-12T05:42:12.686Z,23.5
2023-08-12T05:43:28.879Z,23.5
2023-08-12T05:44:45.073Z,23.6
2023-08-12T05:46:01.267Z,23.7
2023-08-12T05:47:16.482Z,23.7
2023-08-12T05:48:32.676Z,23.7
2023-08-12T05:49:48.870Z,23.8
2023-08-12T05:51:05.064Z,23.8
2023-08-12T05:52:11.000Z,23.7
2023-08-12T05:53:37.451Z,23.6
2023-08-12T05:54:53.645Z,23.5
2023-08-12T05:56:09.839Z,23.4
2023-08-12T05:57:16.000Z,23.3
2023-08-12T05:58:42.226Z,23.3
2023-08-12T05:59:58.420Z,23.1
2023-08-12T06:01:14.614Z,22.9
2023-08-12T06:02:30.807Z,22.9
2023-08-12T06:03:46.259Z,22.8
2023-08-12T06:05:02.211Z,22.8
2023-08-12T06:06:09.000Z,22.8
2023-08-12T06:07:34.598Z,22.8
2023-08-12T06:08:50.792Z,22.7
2023-08-12T06:10:06.986Z,22.7
2023-08-12T06:11:23.180Z,22.7
2023-08-12T06:12:39.374Z,22.6
2023-08-12T06:13:55.568Z,22.6
2023-08-12T06:15:11.761Z,22.7
2023-08-12T06:16:18.000Z,22.7
2023-08-12T06:17:44.148Z,22.5
2023-08-12T06:19:00.342Z,22.5
2023-08-12T06:20:15.553Z,22.5
2023-08-12T06:21:31.747Z,22.5
2023-08-12T06:22:47.940Z,22.5
2023-08-12T06:24:04.134Z,22.2
2023-08-12T06:25:20.328Z,22.2
2023-08-12T06:26:36.763Z,22.2
2023-08-12T06:27:52.715Z,22.3
2023-08-12T06:29:09.156Z,22.3
2023-08-12T06:30:25.102Z,22.2
2023-08-12T06:31:41.296Z,22.2
2023-08-12T06:32:57.490Z,22.2
2023-08-12T06:34:13.683Z,22.3
2023-08-12T06:35:29.877Z,22.3
2023-08-12T06:36:45.087Z,22.3
2023-08-12T06:38:01.280Z,22.3
2023-08-12T06:39:17.474Z,22.4
2023-08-12T06:40:33.668Z,22.5
2023-08-12T06:41:49.862Z,22.5
2023-08-12T06:43:06.056Z,22.6
2023-08-12T06:44:22.250Z,22.7
2023-08-12T06:45:38.443Z,22.8
2023-08-12T06:46:54.637Z,22.9
2023-08-12T06:48:10.831Z,22.9
2023-08-12T06:49:17.000Z,23
2023-08-12T06:50:33.000Z,23
2023-08-12T06:51:59.412Z,23.1
2023-08-12T06:53:14.622Z,23.1
2023-08-12T06:54:30.816Z,23.1
2023-08-12T06:55:47.010Z,23
2023-08-12T06:56:53.000Z,23
2023-08-12T06:58:19.397Z,23.1
2023-08-12T06:59:26.000Z,23.1
2023-08-12T07:00:42.000Z,23
2023-08-12T07:02:07.978Z,23.1
2023-08-12T07:03:24.172Z,23.2
2023-08-12T07:04:40.366Z,23.2
2023-08-12T07:05:56.559Z,23.3
2023-08-12T07:07:12.753Z,23.4
2023-08-12T07:08:19.000Z,23.4
2023-08-12T07:09:44.157Z,23.5
2023-08-12T07:11:00.351Z,23.6
2023-08-12T07:12:07.000Z,23.7
2023-08-12T07:13:32.738Z,23.7
2023-08-12T07:14:39.000Z,23.8
2023-08-12T07:16:05.127Z,23.9
2023-08-12T07:17:11.000Z,23.9
2023-08-12T07:18:37.514Z,23.8
2023-08-12T07:19:53.708Z,23.8
2023-08-12T07:21:09.902Z,23.8
2023-08-12T07:22:26.096Z,23.7
2023-08-12T07:24:58.484Z,23.6
2023-08-12T07:26:13.694Z,23.5
2023-08-12T07:27:29.888Z,23.6
2023-08-12T07:28:36.000Z,23.7
2023-08-12T07:30:02.276Z,23.6
2023-08-12T07:31:08.000Z,23.7
2023-08-12T07:32:34.664Z,23.7
2023-08-12T07:33:50.857Z,23.7
2023-08-12T07:34:57.000Z,23.6
2023-08-12T07:36:23.245Z,23.6
2023-08-12T07:37:29.000Z,23.5
2023-08-12T07:38:55.632Z,23.7
2023-08-12T07:40:11.826Z,23.8
2023-08-12T07:41:28.020Z,23.9
2023-08-12T07:42:43.230Z,23.9
2023-08-12T07:43:59.424Z,24.1
2023-08-12T07:45:06.000Z,24.2
2023-08-12T07:46:31.812Z,24.4
2023-08-12T07:47:48.006Z,24.5
2023-08-12T07:49:04.200Z,24.6
2023-08-12T07:50:20.394Z,24.7
2023-08-12T07:51:36.588Z,24.7
2023-08-12T07:52:52.782Z,24.7
2023-08-12T07:53:59.000Z,24.6
2023-08-12T07:55:25.169Z,24.6
2023-08-12T07:56:41.363Z,24.6
2023-08-12T07:57:57.557Z,24.6
2023-08-12T07:59:12.767Z,24.5
2023-08-12T08:00:28.961Z,24.6
2023-08-12T08:01:35.000Z,24.6
2023-08-12T08:02:51.000Z,24.6
2023-08-12T08:04:17.542Z,24.5
2023-08-12T08:05:33.735Z,24.5
2023-08-12T08:06:40.000Z,24.6
2023-08-12T08:08:06.122Z,24.6
2023-08-12T08:09:12.000Z,24.7
2023-08-12T08:10:38.509Z,24.8
2023-08-12T08:11:45.000Z,24.9
2023-08-12T08:13:10.897Z,24.9
2023-08-12T08:14:27.090Z,24.9
2023-08-12T08:15:42.299Z,25.1
2023-08-12T08:16:48.000Z,25.1
2023-08-12T08:18:14.686Z,24.9
2023-08-12T08:19:30.881Z,24.8
2023-08-12T08:20:47.075Z,24.8
2023-08-12T08:21:53.000Z,24.9
2023-08-12T08:23:19.465Z,25
2023-08-12T08:24:35.660Z,25.2
2023-08-12T08:25:51.855Z,25.3
2023-08-12T08:27:08.049Z,25.5
2023-08-12T08:28:24.244Z,25.7
2023-08-12T08:29:40.438Z,25.8
2023-08-12T08:30:56.633Z,25.8
2023-08-12T08:32:11.845Z,25.9
2023-08-12T08:33:18.000Z,26
2023-08-12T08:34:44.235Z,25.8
2023-08-12T08:35:05.000Z,25.8
2023-08-12T08:37:16.624Z,25.8
2023-08-12T08:38:32.819Z,25.8
2023-08-12T08:38:54.000Z,25.8
2023-08-12T08:41:05.209Z,25.9
2023-08-12T08:42:21.404Z,26.1
2023-08-12T08:42:43.000Z,26.1
2023-08-12T08:44:53.795Z,26.2
2023-08-12T08:45:15.000Z,26
2023-08-12T08:47:16.000Z,26.1
2023-08-12T08:47:46.000Z,26.1
2023-08-12T08:49:57.592Z,26.3
2023-08-12T08:50:19.000Z,26.2
2023-08-12T08:51:35.000Z,26.2
2023-08-12T08:53:36.000Z,26.3
2023-08-12T08:55:02.373Z,26.4
2023-08-12T08:55:23.000Z,26.5
2023-08-12T08:57:34.765Z,26.6
2023-08-12T08:58:50.959Z,26.6
2023-08-12T08:59:57.000Z,26.7
2023-08-12T09:01:13.000Z,26.7
2023-08-12T09:01:44.000Z,26.7
2023-08-12T09:03:01.000Z,26.8
2023-08-12T09:05:10.954Z,26.6
2023-08-12T09:06:27.149Z,26.5
2023-08-12T09:06:48.000Z,26.6
2023-08-12T09:08:04.000Z,26.7
2023-08-12T09:10:06.000Z,26.9
2023-08-12T09:10:37.000Z,27.1
2023-08-12T09:12:48.128Z,27.3
2023-08-12T09:13:09.000Z,27.4
2023-08-12T09:15:20.520Z,27.4
2023-08-12T09:15:42.000Z,27.4
2023-08-12T09:16:58.000Z,27.5
2023-08-12T09:19:09.107Z,27.6
2023-08-12T09:19:30.000Z,27.6
2023-08-12T09:20:46.000Z,27.5
2023-08-12T09:22:02.000Z,27.6
2023-08-12T09:24:12.905Z,27.7
2023-08-12T09:24:34.000Z,27.8
2023-08-12T09:25:50.000Z,28
2023-08-12T09:27:06.000Z,28.1
2023-08-12T09:28:23.000Z,28.2
2023-08-12T09:29:39.000Z,28.2
2023-08-12T09:30:55.000Z,28.1
2023-08-12T09:32:11.000Z,27.9
2023-08-12T09:33:27.000Z,27.9
2023-08-12T09:35:38.668Z,27.7
2023-08-12T09:36:00.000Z,27.6
2023-08-12T09:38:11.059Z,27.7
2023-08-12T09:38:31.000Z,27.7
2023-08-12T09:39:47.000Z,27.6
2023-08-12T09:41:49.000Z,27.5
2023-08-12T09:43:14.859Z,27.5
2023-08-12T09:43:36.000Z,27.3
2023-08-12T09:44:52.000Z,27.2
2023-08-12T09:46:08.000Z,27.2
2023-08-12T09:48:19.642Z,26.9
2023-08-12T09:48:41.000Z,26.9
2023-08-12T09:50:52.034Z,27
2023-08-12T09:51:13.000Z,27.3
2023-08-12T09:53:24.425Z,27.5
2023-08-12T09:54:40.621Z,27.7
2023-08-12T09:55:02.000Z,28
2023-08-12T09:57:02.000Z,28.2
2023-08-12T09:59:44.420Z,28.5
2023-08-12T10:00:06.000Z,28.3
2023-08-12T10:02:06.000Z,28.1
2023-08-12T10:02:37.000Z,28.2
2023-08-12T10:03:53.000Z,28.2
2023-08-12T10:06:04.421Z,28.2
2023-08-12T10:06:26.000Z,28.3
2023-08-12T10:07:42.000Z,28.3
2023-08-12T10:08:58.000Z,28.4
2023-08-12T10:10:14.000Z,28.2
2023-08-12T10:12:25.400Z,28.3
2023-08-12T10:13:31.000Z,28.2
2023-08-12T10:14:03.000Z,28.1
2023-08-12T10:15:19.000Z,28.2
2023-08-12T10:16:35.000Z,28.1
2023-08-12T10:18:45.396Z,28.2
2023-08-12T10:20:01.591Z,28.2
2023-08-12T10:20:23.000Z,28.3
2023-08-12T10:22:33.983Z,28.1
2023-08-12T10:23:40.000Z,28.2
2023-08-12T10:24:11.000Z,28.1
2023-08-12T10:25:27.000Z,28
2023-08-12T10:26:44.000Z,27.8
2023-08-12T10:28:00.000Z,27.6
2023-08-12T10:29:16.000Z,27.7
2023-08-12T10:30:32.000Z,27.7
2023-08-12T10:31:48.000Z,27.6
2023-08-12T10:33:05.000Z,27.6
2023-08-12T10:34:20.000Z,27.9
2023-08-12T10:35:36.000Z,27.9
2023-08-12T10:37:37.000Z,28.1
2023-08-12T10:39:03.546Z,28
2023-08-12T10:40:19.741Z,28.1
2023-08-12T10:40:41.000Z,28.2
2023-08-12T10:41:57.000Z,28.3
2023-08-12T10:43:58.000Z,28.3
2023-08-12T10:44:29.000Z,28.1
2023-08-12T10:45:46.000Z,28.3
2023-08-12T10:47:47.000Z,28.5
2023-08-12T10:48:18.000Z,28.6
2023-08-12T10:50:29.308Z,28.5
2023-08-12T10:51:44.520Z,28.5
2023-08-12T10:53:00.715Z,28.5
2023-08-12T10:53:22.000Z,28.5
2023-08-12T10:54:38.000Z,28.6
2023-08-12T10:55:54.000Z,28.7
2023-08-12T10:58:05.498Z,28.7
2023-08-12T10:58:27.000Z,28.7
2023-08-12T11:00:28.000Z,28.6
2023-08-12T11:00:59.000Z,28.5
2023-08-12T11:03:10.282Z,28.4
2023-08-12T11:03:31.000Z,28.4
2023-08-12T11:04:48.000Z,28.4
2023-08-12T11:06:04.000Z,28.4
2023-08-12T11:08:14.081Z,28.4
2023-08-12T11:08:35.000Z,28.3
2023-08-12T11:09:51.000Z,28
2023-08-12T11:11:08.000Z,27.8
2023-08-12T11:12:24.000Z,27.7
2023-08-12T11:13:40.000Z,27.7
2023-08-12T11:14:56.000Z,27.5
2023-08-12T11:17:07.452Z,27.6
2023-08-12T11:18:23.648Z,27.6
2023-08-12T11:19:39.844Z,27.8
2023-08-12T11:20:01.000Z,28
2023-08-12T11:21:17.000Z,28
2023-08-12T11:22:33.000Z,28
2023-08-12T11:23:49.000Z,28.1
2023-08-12T11:25:59.838Z,28.1
2023-08-12T11:26:21.000Z,28.1
2023-08-12T11:27:37.000Z,28.1
2023-08-12T11:28:53.000Z,28
2023-08-12T11:31:04.621Z,28.1
2023-08-12T11:31:26.000Z,27.9
2023-08-12T11:33:37.013Z,27.9
2023-08-12T11:33:58.000Z,28
2023-08-12T11:35:14.000Z,27.9
2023-08-12T11:36:30.000Z,28.3
2023-08-12T11:38:41.797Z,28.8
2023-08-12T11:39:03.000Z,29.1
2023-08-12T11:40:18.000Z,29.3
2023-08-12T11:42:29.401Z,29.5
2023-08-12T11:43:45.596Z,29.6
2023-08-12T11:45:01.793Z,29.7
2023-08-12T11:45:23.000Z,29.7
2023-08-12T11:46:39.000Z,29.9
2023-08-12T11:48:50.381Z,30.1
2023-08-12T11:49:11.000Z,30.2
2023-08-12T11:51:22.773Z,30.3
2023-08-12T11:52:38.970Z,30.5
2023-08-12T11:53:00.000Z,30.5
2023-08-12T11:54:16.000Z,29.9
2023-08-12T11:56:27.557Z,29.5
2023-08-12T11:57:33.000Z,29.4
2023-08-12T11:58:49.000Z,29.5
2023-08-12T11:59:20.000Z,29.2
2023-08-12T12:00:36.000Z,29
2023-08-12T12:02:47.554Z,28.8
2023-08-12T12:04:03.750Z,28.7
2023-08-12T12:04:25.000Z,28.7
2023-08-12T12:05:41.000Z,28.8
2023-08-12T12:06:57.000Z,28.5
2023-08-12T12:08:13.000Z,28.6
2023-08-12T12:09:30.000Z,28.6
2023-08-12T12:11:40.925Z,28.6
2023-08-12T12:12:47.000Z,28.4
2023-08-12T12:14:12.333Z,28.4
2023-08-12T12:14:33.000Z,28.6
2023-08-12T12:15:50.000Z,28.6
2023-08-12T12:18:00.921Z,28.8
2023-08-12T12:19:17.116Z,28.5
2023-08-12T12:20:23.000Z,28.6
2023-08-12T12:20:54.000Z,28.4
2023-08-12T12:22:11.000Z,28.3
2023-08-12T12:23:27.000Z,28.3
2023-08-12T12:24:43.000Z,28.5
2023-08-12T12:26:54.291Z,28.5
2023-08-12T12:27:15.000Z,28.4
2023-08-12T12:29:36.152Z,28.5
2023-08-12T12:29:47.000Z,28.5
2023-08-12T12:31:48.000Z,28.4
2023-08-12T12:33:14.288Z,28.5
2023-08-12T12:34:30.484Z,28.3
2023-08-12T12:35:36.000Z,28.4
2023-08-12T12:36:08.000Z,28.2
2023-08-12T12:37:24.000Z,28.2
2023-08-12T12:39:35.268Z,28.3
2023-08-12T12:40:51.464Z,28.3
2023-08-12T12:41:12.000Z,28.4
2023-08-12T12:42:29.000Z,28.6
2023-08-12T12:43:45.000Z,28.7
2023-08-12T12:45:01.000Z,28.8
2023-08-12T12:47:11.460Z,28.9
2023-08-12T12:47:32.000Z,29
2023-08-12T12:49:43.852Z,28.7
2023-08-12T12:51:00.049Z,29
2023-08-12T12:51:21.000Z,29
2023-08-12T12:52:37.000Z,29.3
2023-08-12T12:53:53.000Z,29.2
2023-08-12T12:55:10.000Z,29
2023-08-12T12:56:26.000Z,29.1
2023-08-12T12:57:42.000Z,29.1
2023-08-12T12:59:53.421Z,29.2
2023-08-12T13:00:14.000Z,29.1
2023-08-12T13:02:25.814Z,29.2
2023-08-12T13:02:47.000Z,29.5
2023-08-12T13:04:02.000Z,29.5
2023-08-12T13:06:13.419Z,29.5
2023-08-12T13:06:34.000Z,29.7
2023-08-12T13:07:51.000Z,29.5
2023-08-12T13:09:52.000Z,29.3
2023-08-12T13:10:23.000Z,29.4
2023-08-12T13:12:34.399Z,29.5
2023-08-12T13:13:50.595Z,29.3
2023-08-12T13:14:12.000Z,29
2023-08-12T13:16:22.988Z,28.8
2023-08-12T13:16:44.000Z,28.9
2023-08-12T13:18:00.000Z,28.9
2023-08-12T13:19:16.000Z,29.1
2023-08-12T13:21:17.000Z,29.3
2023-08-12T13:21:48.000Z,29.2
2023-08-12T13:23:04.000Z,29.3
2023-08-12T13:25:15.380Z,29.2
2023-08-12T13:25:36.000Z,29.3
2023-08-12T13:27:47.773Z,29.2
2023-08-12T13:29:03.969Z,29.3
2023-08-12T13:30:10.000Z,29.1
2023-08-12T13:30:41.000Z,29
2023-08-12T13:31:57.000Z,29.2
2023-08-12T13:33:14.000Z,29.2
2023-08-12T13:35:15.000Z,29.2
2023-08-12T13:35:46.000Z,29.3
2023-08-12T13:37:57.343Z,29.4
2023-08-12T13:38:17.000Z,29.3
2023-08-12T13:40:18.000Z,29.4
2023-08-12T13:40:50.000Z,29.3
2023-08-12T13:43:01.144Z,29.2
2023-08-12T13:44:17.341Z,29.5
2023-08-12T13:44:38.000Z,29.6
2023-08-12T13:46:49.734Z,29.5
2023-08-12T13:47:11.000Z,29.5
2023-08-12T13:48:27.000Z,29.4
2023-08-12T13:49:43.000Z,29
2023-08-12T13:50:59.000Z,28.7
2023-08-12T13:52:16.000Z,28.5
2023-08-12T13:54:26.913Z,28.2
2023-08-12T13:54:47.000Z,27.9
2023-08-12T13:56:03.000Z,28
2023-08-12T13:57:19.000Z,27.6
2023-08-12T13:58:36.000Z,27.3
2023-08-12T13:59:52.000Z,27.5
2023-08-12T14:01:08.000Z,27.7
2023-08-12T14:02:24.000Z,27.5
2023-08-12T14:03:40.000Z,27.2
2023-08-12T14:04:56.000Z,27
2023-08-12T14:06:13.000Z,26.8
2023-08-12T14:07:29.000Z,26.9
2023-08-12T14:09:40.283Z,26.9
2023-08-12T14:10:56.479Z,27
2023-08-12T14:11:16.000Z,27
2023-08-12T14:12:33.000Z,26.9
2023-08-12T14:13:49.000Z,26.8
2023-08-12T14:15:05.000Z,26.8
2023-08-12T14:16:20.000Z,27
2023-08-12T14:18:30.742Z,27.3
2023-08-12T14:19:46.938Z,27
2023-08-12T14:20:08.000Z,26.8
2023-08-12T14:21:23.000Z,27
2023-08-12T14:23:24.000Z,26.9
2023-08-12T14:23:56.000Z,26.7
2023-08-12T14:25:57.000Z,26.7
2023-08-12T14:26:28.000Z,26.8
2023-08-12T14:27:44.000Z,26.7
2023-08-12T14:29:00.000Z,26.7
2023-08-12T14:31:33.000Z,26.8
2023-08-12T14:31:40.062Z,26.8
2023-08-12T14:33:44.113Z,26.6
2023-08-12T14:34:05.000Z,26.6
2023-08-12T14:35:21.000Z,26.7
2023-08-12T14:36:37.000Z,26.7
2023-08-12T14:37:53.000Z,26.7
2023-08-12T14:39:09.000Z,26.8
2023-08-12T14:41:20.305Z,26.9
2023-08-12T14:41:41.000Z,27
2023-08-12T14:42:57.000Z,26.7
2023-08-12T14:44:14.000Z,26.7
2023-08-12T14:46:25.089Z,26.7
2023-08-12T14:47:41.286Z,26.8
2023-08-12T14:48:02.000Z,26.9
2023-08-12T14:50:03.000Z,26.9
2023-08-12T14:51:20.000Z,26.7
2023-08-12T14:51:51.000Z,26.9
2023-08-12T14:54:02.265Z,26.7
2023-08-12T14:54:22.000Z,26.6
2023-08-12T14:55:38.000Z,26.8
2023-08-12T14:56:55.000Z,26.8
2023-08-12T14:59:06.066Z,27.1
2023-08-12T14:59:27.000Z,27.3
2023-08-12T15:00:43.000Z,27.6
2023-08-12T15:02:54.653Z,27.4
2023-08-12T15:03:16.000Z,27.1
2023-08-12T15:05:27.046Z,27
2023-08-12T15:06:43.241Z,27.1
2023-08-12T15:07:04.000Z,27.2
2023-08-12T15:08:20.000Z,27.1
2023-08-12T15:10:31.828Z,27.1
2023-08-12T15:10:52.000Z,27
2023-08-12T15:12:08.000Z,26.9
2023-08-12T15:13:24.000Z,26.8
2023-08-12T15:14:40.000Z,26.8
2023-08-12T15:16:41.000Z,26.7
2023-08-12T15:17:13.000Z,26.6
2023-08-12T15:18:29.000Z,26.3
2023-08-12T15:20:30.000Z,26.3
2023-08-12T15:22:09.673Z,26.3
2023-08-12T15:22:18.000Z,26.3
2023-08-12T15:24:28.999Z,26.1
2023-08-12T15:24:50.000Z,26.1
2023-08-12T15:27:01.391Z,26
2023-08-12T15:27:21.000Z,26.2
2023-08-12T15:29:22.000Z,26.2
2023-08-12T15:30:48.996Z,26.2
2023-08-12T15:31:10.000Z,26.1
2023-08-12T15:32:26.000Z,26.2
2023-08-12T15:34:27.000Z,26.3
2023-08-12T15:35:53.780Z,26.5
2023-08-12T15:36:15.000Z,26.7
2023-08-12T15:38:26.172Z,26.9
2023-08-12T15:38:47.000Z,27.1
2023-08-12T15:40:58.563Z,27.4
2023-08-12T15:41:20.000Z,27.5
2023-08-12T15:42:36.000Z,27.6
2023-08-12T15:43:52.000Z,27.7
2023-08-12T15:46:02.364Z,27.6
2023-08-12T15:46:23.000Z,27.3
2023-08-12T15:48:24.000Z,27.4
2023-08-12T15:48:56.000Z,27.5
2023-08-12T15:50:57.000Z,27.5
2023-08-12T15:52:23.343Z,27.7
2023-08-12T15:52:44.000Z,27.9
2023-08-12T15:54:55.734Z,27.9
2023-08-12T15:56:11.932Z,28.1
2023-08-12T15:56:33.000Z,28.3
2023-08-12T15:58:44.323Z,28.5
2023-08-12T16:00:00.519Z,28.5
2023-08-12T16:00:21.000Z,28.4
2023-08-12T16:01:37.000Z,28.1
2023-08-12T16:02:53.000Z,27.9
2023-08-12T16:04:54.000Z,27.8
2023-08-12T16:05:25.000Z,28
2023-08-12T16:07:36.713Z,28
2023-08-12T16:07:58.000Z,28
2023-08-12T16:10:09.104Z,28
2023-08-12T16:10:30.000Z,28.1
2023-08-12T16:11:46.000Z,28.1
2023-08-12T16:13:47.000Z,28.2
2023-08-12T16:15:13.888Z,28.2
2023-08-12T16:16:30.084Z,28.3
2023-08-12T16:16:51.000Z,28.4
2023-08-12T16:18:06.000Z,28.3
2023-08-12T16:19:22.000Z,28.3
2023-08-12T16:20:39.000Z,28.1
2023-08-12T16:21:55.000Z,27.9
2023-08-12T16:23:11.000Z,27.6
2023-08-12T16:24:27.000Z,27.5
2023-08-12T16:25:43.000Z,27.5
2023-08-12T16:27:54.864Z,27.4
2023-08-12T16:29:11.061Z,27.4
2023-08-12T16:30:17.000Z,27.3
2023-08-12T16:31:43.454Z,27.2
2023-08-12T16:32:59.650Z,27.2
2023-08-12T16:34:15.846Z,27.3
2023-08-12T16:35:31.059Z,27.4
2023-08-12T16:35:52.000Z,27.5
2023-08-12T16:37:08.000Z,27.6
2023-08-12T16:38:24.000Z,27.6
2023-08-12T16:39:41.000Z,27.4
2023-08-12T16:40:57.000Z,27.4
2023-08-12T16:43:08.234Z,27.1
2023-08-12T16:44:24.430Z,27
2023-08-12T16:44:45.000Z,27.1
2023-08-12T16:46:02.000Z,26.9
2023-08-12T16:48:34.000Z,26.8
2023-08-12T16:48:41.618Z,26.7
2023-08-12T16:50:45.409Z,26.7
2023-08-12T16:51:05.000Z,26.8
2023-08-12T16:53:16.818Z,26.8
2023-08-12T16:53:38.000Z,27
2023-08-12T16:54:54.000Z,27
2023-08-12T16:57:05.405Z,27.2
2023-08-12T16:57:26.000Z,27.2
2023-08-12T16:59:37.797Z,27.3
2023-08-12T16:59:59.000Z,27.1
2023-08-12T17:01:15.000Z,27